METAR Data
IDs: Format: Raw Decoded Include TAF

Data at: 0949 UTC 22 Oct 2018

PABE 220853Z 04004KT 10SM OVC075 04/03 A2922 RMK AO2 SLP895 60000 T00390033 400390011 53013 $
PABE 220753Z 02005KT 10SM OVC070 03/03 A2920 RMK AO2 RAB21E43 SLP890 P0000 T00330028 $
PABE 220653Z 02008KT 10SM BKN070 OVC080 03/03 A2919 RMK AO2 SLP886 T00330028 $
PABE 220553Z 02008KT 10SM SCT060 OVC080 03/02 A2918 RMK AO2 SLP882 60000 T00330022 10039 20028 53006 $
PABE 220453Z 03009KT 10SM BKN120 03/02 A2917 RMK AO2 SLP880 T00330022 $
PABE 220353Z 03010KT 10SM BKN070 03/02 A2917 RMK AO2 SLP878 T00280017 $
PABE 220253Z 02014KT 10SM FEW070 03/02 A2916 RMK AO2 SLP876 60000 T00330017 56002 $
PABE 220153Z 03015G22KT 10SM FEW065 BKN085 04/02 A2917 RMK AO2 PK WND 02026/0118 SLP878 T00390017 $
PABE 220053Z 03018G25KT 10SM OVC075 03/02 A2916 RMK AO2 PK WND 02026/0016 RAB12E30 SLP876 P0000 T00330017 $
PABE 212353Z 02017G23KT 10SM OVC065 03/01 A2917 RMK AO2 SLP879 60000 T00330011 10033 20011 58004 $
PABE 212253Z 02016G22KT 10SM FEW050 OVC070 03/01 A2917 RMK AO2 RAB23E32 SLP881 P0000 T00280006 $
PABE 212153Z 02017G22KT 10SM CLR 03/01 A2918 RMK AO2 SLP882 T00280006 $
PABE 212053Z 01017KT 10SM FEW009 BKN095 03/01 A2918 RMK AO2 SLP882 T00330006 58004 $
PABE 212034Z 02016G24KT 10SM FEW009 BKN095 03/01 A2918 RMK AO2 T00280006 $
PABE 211953Z 02017G25KT 10SM BKN011 OVC085 02/00 A2919 RMK AO2 SLP886 T00170000 $
PABE 211853Z 02016KT 10SM BKN011 BKN080 02/01 A2920 RMK AO2 SLP888 T00170006 $
PABE 211753Z 01015KT 10SM BKN011 BKN090 01/00 A2919 RMK AO2 SLP886 T00110000 10017 20011 55003 $
PABE 211710Z 01013G22KT 10SM BKN011 OVC095 02/01 A2919 RMK AO2 T00170006 $
PABE 211700Z 01016KT 10SM SCT011 OVC090 02/01 A2919 RMK AO2 T00170006 $
PABE 211653Z 01017KT 10SM BKN010 OVC085 02/01 A2919 RMK AO2 SLP885 T00170006 $
PABE 211609Z 01016G22KT 10SM BKN010 OVC085 02/01 A2919 RMK AO2 T00170006 $
PABE 211553Z 01017KT 10SM SCT010 OVC085 02/01 A2919 RMK AO2 PK WND 02028/1457 SLP888 T00170006 $
PABE 211453Z 01021G27KT 10SM OVC011 02/00 A2920 RMK AO2 PK WND 01027/1453 SLP890 T00170000 58013 $
PABE 211426Z AUTO 02019G25KT 10SM BKN010 OVC075 02/00 A2921 RMK AO2 PK WND 01027/1359 T00170000 TSNO $
PABE 211353Z 01020G28KT 10SM BKN009 OVC075 02/00 A2921 RMK AO2 PK WND 01028/1353 SLP892 T00170000 $
PABE 211253Z 02018G23KT 10SM BKN009 OVC070 02/01 A2924 RMK AO2 SLP901 T00170006 $
PABE 211240Z 02017KT 10SM FEW009 OVC070 02/01 A2923 RMK AO2 T00170006 $
PABE 211153Z 02016G21KT 10SM BKN055 OVC095 01/01 A2924 RMK AO2 SLP903 T00110006 10017 20011 56023 $
PABE 211053Z 02016KT 10SM FEW095 02/01 A2926 RMK AO2 SLP908 T00170006 $
PABE 210953Z 02013KT 10SM OVC090 02/01 A2928 RMK AO2 SLP917 T00170006 $
PABE 210853Z 02014KT 10SM BKN085 02/01 A2931 RMK AO2 SLP926 T00170006 400501039 56014 $
PABE 210753Z 02012KT 10SM CLR 02/01 A2932 RMK AO2 SLP929 T00170006 $
PABE 210653Z 02013KT 10SM CLR 02/01 A2933 RMK AO2 SLP932 T00170006 $
PABE 210553Z 02014KT 10SM CLR 02/01 A2935 RMK AO2 SLP940 T00170006 10050 20017 58011 $
PABE 210453Z 03012KT 10SM CLR 02/01 A2937 RMK AO2 SLP946 T00170006 $
PABE 210353Z 02009KT 10SM CLR 02/00 A2938 RMK AO2 SLP951 T00170000 $
PABE 210253Z 02009KT 10SM CLR 03/01 A2938 RMK AO2 SLP951 T00280011 58017 $
PABE 210153Z 02008KT 10SM CLR 04/01 A2941 RMK AO2 SLP959 T00440011 $
PABE 210053Z 03012KT 10SM CLR 04/01 A2942 RMK AO2 SLP963 T00440011 $
PABE 202353Z 03011KT 10SM FEW010 BKN150 04/02 A2943 RMK AO2 SLP968 I6001 T00390017 10039 21039 58018 $
PABE 202253Z 03010KT 10SM SCT006 BKN120 03/01 A2945 RMK AO2 SLP974 T00330011 $
PABE 202200Z 02008KT 10SM FEW006 02/01 A2947 RMK AO2 T00220011 $
PABE 202153Z 03007KT 10SM SCT010 SCT150 02/01 A2947 RMK AO2 SLP982 T00170011 $